sensor_id;sensor_type;location;lat;lon;timestamp;temperature;humidity
62339;DHT22;48368;53.406;6.214;2023-03-23T00:02:29;9.90;99.90
62339;DHT22;48368;53.406;6.214;2023-03-23T00:04:58;9.90;99.90
62339;DHT22;48368;53.406;6.214;2023-03-23T00:07:26;9.90;99.90
62339;DHT22;48368;53.406;6.214;2023-03-23T00:09:54;10.00;99.90
62339;DHT22;48368;53.406;6.214;2023-03-23T00:12:24;9.90;99.90
62339;DHT22;48368;53.406;6.214;2023-03-23T00:15:01;10.00;99.90
62339;DHT22;48368;53.406;6.214;2023-03-23T00:17:28;10.00;99.90
62339;DHT22;48368;53.406;6.214;2023-03-23T00:19:54;10.00;99.90
62339;DHT22;48368;53.406;6.214;2023-03-23T00:22:21;10.00;99.90
62339;DHT22;48368;53.406;6.214;2023-03-23T00:24:47;10.10;99.90
62339;DHT22;48368;53.406;6.214;2023-03-23T00:27:16;10.00;99.90
62339;DHT22;48368;53.406;6.214;2023-03-23T00:29:42;10.00;99.90
62339;DHT22;48368;53.406;6.214;2023-03-23T00:32:10;10.00;99.90
62339;DHT22;48368;53.406;6.214;2023-03-23T00:34:40;10.00;99.90
62339;DHT22;48368;53.406;6.214;2023-03-23T00:37:07;9.90;99.90
62339;DHT22;48368;53.406;6.214;2023-03-23T00:39:33;10.00;99.90
62339;DHT22;48368;53.406;6.214;2023-03-23T00:42:02;10.00;99.90
62339;DHT22;48368;53.406;6.214;2023-03-23T00:44:29;9.90;99.90
62339;DHT22;48368;53.406;6.214;2023-03-23T00:46:56;9.90;99.90
62339;DHT22;48368;53.406;6.214;2023-03-23T00:49:23;10.00;99.90
62339;DHT22;48368;53.406;6.214;2023-03-23T00:51:53;10.10;99.90
62339;DHT22;48368;53.406;6.214;2023-03-23T00:54:20;9.90;99.90
62339;DHT22;48368;53.406;6.214;2023-03-23T00:56:46;10.10;99.90
62339;DHT22;48368;53.406;6.214;2023-03-23T00:59:12;10.10;99.90
62339;DHT22;48368;53.406;6.214;2023-03-23T01:01:38;10.10;99.90
62339;DHT22;48368;53.406;6.214;2023-03-23T01:04:05;10.20;99.90
62339;DHT22;48368;53.406;6.214;2023-03-23T01:06:36;10.20;99.90
62339;DHT22;48368;53.406;6.214;2023-03-23T01:09:04;10.10;99.90
62339;DHT22;48368;53.406;6.214;2023-03-23T01:11:31;10.10;99.90
62339;DHT22;48368;53.406;6.214;2023-03-23T01:13:57;10.20;99.90
62339;DHT22;48368;53.406;6.214;2023-03-23T01:16:23;10.20;99.90
62339;DHT22;48368;53.406;6.214;2023-03-23T01:18:49;10.10;99.90
62339;DHT22;48368;53.406;6.214;2023-03-23T01:21:16;10.10;99.90
62339;DHT22;48368;53.406;6.214;2023-03-23T01:23:43;10.10;99.90
62339;DHT22;48368;53.406;6.214;2023-03-23T01:26:17;10.10;99.90
62339;DHT22;48368;53.406;6.214;2023-03-23T01:28:44;10.10;99.90
62339;DHT22;48368;53.406;6.214;2023-03-23T01:31:12;10.10;99.90
62339;DHT22;48368;53.406;6.214;2023-03-23T01:33:39;10.20;99.90
62339;DHT22;48368;53.406;6.214;2023-03-23T01:36:09;10.10;99.90
62339;DHT22;48368;53.406;6.214;2023-03-23T01:38:35;10.20;99.90
62339;DHT22;48368;53.406;6.214;2023-03-23T01:41:01;10.20;99.90
62339;DHT22;48368;53.406;6.214;2023-03-23T01:43:27;10.20;99.90
62339;DHT22;48368;53.406;6.214;2023-03-23T01:45:53;10.30;99.90
62339;DHT22;48368;53.406;6.214;2023-03-23T01:50:58;10.30;99.90
62339;DHT22;48368;53.406;6.214;2023-03-23T01:53:30;10.30;99.90
62339;DHT22;48368;53.406;6.214;2023-03-23T01:55:57;10.30;99.90
62339;DHT22;48368;53.406;6.214;2023-03-23T01:58:28;10.40;99.90
62339;DHT22;48368;53.406;6.214;2023-03-23T02:00:58;10.30;99.90
62339;DHT22;48368;53.406;6.214;2023-03-23T02:03:27;10.40;99.90
62339;DHT22;48368;53.406;6.214;2023-03-23T02:05:55;10.40;99.90
62339;DHT22;48368;53.406;6.214;2023-03-23T02:08:25;10.30;99.90
62339;DHT22;48368;53.406;6.214;2023-03-23T02:10:52;10.40;99.90
62339;DHT22;48368;53.406;6.214;2023-03-23T02:13:18;10.40;99.90
62339;DHT22;48368;53.406;6.214;2023-03-23T02:15:59;10.40;99.90
62339;DHT22;48368;53.406;6.214;2023-03-23T02:18:36;10.50;99.90
62339;DHT22;48368;53.406;6.214;2023-03-23T02:21:35;10.60;99.90
62339;DHT22;48368;53.406;6.214;2023-03-23T02:24:28;10.60;99.90
62339;DHT22;48368;53.406;6.214;2023-03-23T02:27:00;10.50;99.90
62339;DHT22;48368;53.406;6.214;2023-03-23T02:38:53;10.60;99.90
62339;DHT22;48368;53.406;6.214;2023-03-23T02:41:08;10.60;99.90
62339;DHT22;48368;53.406;6.214;2023-03-23T02:43:40;10.60;99.90
62339;DHT22;48368;53.406;6.214;2023-03-23T02:46:08;10.50;99.90
62339;DHT22;48368;53.406;6.214;2023-03-23T02:48:35;10.60;99.90
62339;DHT22;48368;53.406;6.214;2023-03-23T02:51:02;10.60;99.90
62339;DHT22;48368;53.406;6.214;2023-03-23T02:53:30;10.50;99.90
62339;DHT22;48368;53.406;6.214;2023-03-23T02:55:57;10.60;99.90
62339;DHT22;48368;53.406;6.214;2023-03-23T02:58:24;10.60;99.90
62339;DHT22;48368;53.406;6.214;2023-03-23T03:00:50;10.60;99.90
62339;DHT22;48368;53.406;6.214;2023-03-23T03:03:19;10.60;99.90
62339;DHT22;48368;53.406;6.214;2023-03-23T03:06:14;10.60;99.90
62339;DHT22;48368;53.406;6.214;2023-03-23T03:08:50;10.60;99.90
62339;DHT22;48368;53.406;6.214;2023-03-23T03:11:22;10.60;99.90
62339;DHT22;48368;53.406;6.214;2023-03-23T03:13:56;10.60;99.90
62339;DHT22;48368;53.406;6.214;2023-03-23T03:16:28;10.70;99.90
62339;DHT22;48368;53.406;6.214;2023-03-23T03:19:13;10.70;99.90
62339;DHT22;48368;53.406;6.214;2023-03-23T03:21:42;10.70;99.90
62339;DHT22;48368;53.406;6.214;2023-03-23T03:24:11;10.60;99.90
62339;DHT22;48368;53.406;6.214;2023-03-23T03:26:41;10.60;99.90
62339;DHT22;48368;53.406;6.214;2023-03-23T03:29:11;10.70;99.90
62339;DHT22;48368;53.406;6.214;2023-03-23T03:31:39;10.70;99.90
62339;DHT22;48368;53.406;6.214;2023-03-23T03:34:11;10.70;99.90
62339;DHT22;48368;53.406;6.214;2023-03-23T03:36:46;10.70;99.90
62339;DHT22;48368;53.406;6.214;2023-03-23T03:39:14;10.70;99.90
62339;DHT22;48368;53.406;6.214;2023-03-23T03:41:43;10.70;99.90
62339;DHT22;48368;53.406;6.214;2023-03-23T03:44:09;10.80;99.90
62339;DHT22;48368;53.406;6.214;2023-03-23T03:46:35;10.70;99.90
62339;DHT22;48368;53.406;6.214;2023-03-23T03:49:03;10.70;99.90
62339;DHT22;48368;53.406;6.214;2023-03-23T03:51:29;10.60;99.90
62339;DHT22;48368;53.406;6.214;2023-03-23T03:53:55;10.60;99.90
62339;DHT22;48368;53.406;6.214;2023-03-23T03:56:22;10.60;99.90
62339;DHT22;48368;53.406;6.214;2023-03-23T03:58:48;10.50;99.90
62339;DHT22;48368;53.406;6.214;2023-03-23T04:01:19;10.40;99.90
62339;DHT22;48368;53.406;6.214;2023-03-23T04:03:47;10.40;99.90
62339;DHT22;48368;53.406;6.214;2023-03-23T04:06:12;10.20;99.90
62339;DHT22;48368;53.406;6.214;2023-03-23T04:08:39;10.30;99.90
62339;DHT22;48368;53.406;6.214;2023-03-23T04:11:07;10.20;99.90
62339;DHT22;48368;53.406;6.214;2023-03-23T04:13:32;10.20;99.90
62339;DHT22;48368;53.406;6.214;2023-03-23T04:15:58;10.20;99.90
62339;DHT22;48368;53.406;6.214;2023-03-23T04:18:24;10.10;99.90
62339;DHT22;48368;53.406;6.214;2023-03-23T04:20:51;10.10;99.90
62339;DHT22;48368;53.406;6.214;2023-03-23T04:23:18;10.10;99.90
62339;DHT22;48368;53.406;6.214;2023-03-23T04:25:51;10.10;99.90
62339;DHT22;48368;53.406;6.214;2023-03-23T04:28:19;10.10;99.90
62339;DHT22;48368;53.406;6.214;2023-03-23T04:30:52;10.10;99.90
62339;DHT22;48368;53.406;6.214;2023-03-23T04:33:20;10.10;99.90
62339;DHT22;48368;53.406;6.214;2023-03-23T04:35:49;10.20;99.90
62339;DHT22;48368;53.406;6.214;2023-03-23T04:38:17;10.20;99.90
62339;DHT22;48368;53.406;6.214;2023-03-23T04:40:46;10.20;99.90
62339;DHT22;48368;53.406;6.214;2023-03-23T04:43:12;10.20;99.90
62339;DHT22;48368;53.406;6.214;2023-03-23T04:45:38;10.20;99.90
62339;DHT22;48368;53.406;6.214;2023-03-23T04:48:07;10.20;99.90
62339;DHT22;48368;53.406;6.214;2023-03-23T04:50:34;10.10;99.90
62339;DHT22;48368;53.406;6.214;2023-03-23T04:53:02;10.20;99.90
62339;DHT22;48368;53.406;6.214;2023-03-23T04:55:35;10.20;99.90
62339;DHT22;48368;53.406;6.214;2023-03-23T04:58:05;10.20;99.90
62339;DHT22;48368;53.406;6.214;2023-03-23T05:00:33;10.30;99.90
62339;DHT22;48368;53.406;6.214;2023-03-23T05:02:59;10.30;99.90
62339;DHT22;48368;53.406;6.214;2023-03-23T05:05:27;10.20;99.90
62339;DHT22;48368;53.406;6.214;2023-03-23T05:07:53;10.20;99.90
62339;DHT22;48368;53.406;6.214;2023-03-23T05:10:19;10.20;99.90
62339;DHT22;48368;53.406;6.214;2023-03-23T05:12:45;10.20;99.90
62339;DHT22;48368;53.406;6.214;2023-03-23T05:15:13;10.10;99.90
62339;DHT22;48368;53.406;6.214;2023-03-23T05:17:39;10.20;99.90
62339;DHT22;48368;53.406;6.214;2023-03-23T05:20:07;10.10;99.90
62339;DHT22;48368;53.406;6.214;2023-03-23T05:22:37;10.10;99.90
62339;DHT22;48368;53.406;6.214;2023-03-23T05:25:07;10.10;99.90
62339;DHT22;48368;53.406;6.214;2023-03-23T05:27:39;10.00;99.90
62339;DHT22;48368;53.406;6.214;2023-03-23T05:30:09;10.00;99.90
62339;DHT22;48368;53.406;6.214;2023-03-23T05:32:35;10.00;99.90
62339;DHT22;48368;53.406;6.214;2023-03-23T05:35:03;10.00;99.90
62339;DHT22;48368;53.406;6.214;2023-03-23T05:37:28;10.00;99.90
62339;DHT22;48368;53.406;6.214;2023-03-23T05:39:58;10.00;99.90
62339;DHT22;48368;53.406;6.214;2023-03-23T05:42:30;9.90;99.90
62339;DHT22;48368;53.406;6.214;2023-03-23T05:44:56;10.00;99.90
62339;DHT22;48368;53.406;6.214;2023-03-23T05:47:22;9.90;99.90
62339;DHT22;48368;53.406;6.214;2023-03-23T05:49:48;9.90;99.90
62339;DHT22;48368;53.406;6.214;2023-03-23T05:52:14;9.80;99.90
62339;DHT22;48368;53.406;6.214;2023-03-23T05:54:39;9.90;99.90
62339;DHT22;48368;53.406;6.214;2023-03-23T05:57:07;9.90;99.90
62339;DHT22;48368;53.406;6.214;2023-03-23T05:59:34;9.80;99.90
62339;DHT22;48368;53.406;6.214;2023-03-23T06:02:00;9.90;99.90
62339;DHT22;48368;53.406;6.214;2023-03-23T06:04:26;9.80;99.90
62339;DHT22;48368;53.406;6.214;2023-03-23T06:06:52;9.80;99.90
62339;DHT22;48368;53.406;6.214;2023-03-23T06:09:19;9.80;99.90
62339;DHT22;48368;53.406;6.214;2023-03-23T06:11:45;9.80;99.90
62339;DHT22;48368;53.406;6.214;2023-03-23T06:14:11;9.90;99.90
62339;DHT22;48368;53.406;6.214;2023-03-23T06:16:37;9.80;99.90
62339;DHT22;48368;53.406;6.214;2023-03-23T06:19:03;9.70;99.90
62339;DHT22;48368;53.406;6.214;2023-03-23T06:21:30;9.70;99.90
62339;DHT22;48368;53.406;6.214;2023-03-23T06:23:57;9.70;99.90
62339;DHT22;48368;53.406;6.214;2023-03-23T06:26:29;9.70;99.90
62339;DHT22;48368;53.406;6.214;2023-03-23T06:28:56;9.60;99.90
62339;DHT22;48368;53.406;6.214;2023-03-23T06:31:23;9.60;99.90
62339;DHT22;48368;53.406;6.214;2023-03-23T06:33:49;9.60;99.90
62339;DHT22;48368;53.406;6.214;2023-03-23T06:36:15;9.60;99.90
62339;DHT22;48368;53.406;6.214;2023-03-23T06:38:42;9.60;99.90
62339;DHT22;48368;53.406;6.214;2023-03-23T06:41:08;9.60;99.90
62339;DHT22;48368;53.406;6.214;2023-03-23T06:43:34;9.70;99.90
62339;DHT22;48368;53.406;6.214;2023-03-23T06:46:01;9.80;99.90
62339;DHT22;48368;53.406;6.214;2023-03-23T06:48:27;9.80;99.90
62339;DHT22;48368;53.406;6.214;2023-03-23T06:50:53;9.90;99.90
62339;DHT22;48368;53.406;6.214;2023-03-23T06:53:19;9.90;99.90
62339;DHT22;48368;53.406;6.214;2023-03-23T06:55:46;9.90;99.90
62339;DHT22;48368;53.406;6.214;2023-03-23T06:58:12;10.00;99.90
62339;DHT22;48368;53.406;6.214;2023-03-23T07:00:38;10.00;99.90
62339;DHT22;48368;53.406;6.214;2023-03-23T07:03:06;10.00;99.90
62339;DHT22;48368;53.406;6.214;2023-03-23T07:05:33;10.00;99.90
62339;DHT22;48368;53.406;6.214;2023-03-23T07:08:00;10.20;99.90
62339;DHT22;48368;53.406;6.214;2023-03-23T07:10:26;10.20;99.90
62339;DHT22;48368;53.406;6.214;2023-03-23T07:12:52;10.30;99.90
62339;DHT22;48368;53.406;6.214;2023-03-23T07:15:18;10.30;99.90
62339;DHT22;48368;53.406;6.214;2023-03-23T07:17:44;10.40;99.90
62339;DHT22;48368;53.406;6.214;2023-03-23T07:20:11;10.40;99.90
62339;DHT22;48368;53.406;6.214;2023-03-23T07:22:37;10.50;99.90
62339;DHT22;48368;53.406;6.214;2023-03-23T07:25:04;10.50;99.90
62339;DHT22;48368;53.406;6.214;2023-03-23T07:27:30;10.50;99.90
62339;DHT22;48368;53.406;6.214;2023-03-23T07:29:56;10.60;99.90
62339;DHT22;48368;53.406;6.214;2023-03-23T07:32:23;10.70;99.90
62339;DHT22;48368;53.406;6.214;2023-03-23T07:34:51;10.80;99.90
62339;DHT22;48368;53.406;6.214;2023-03-23T07:37:17;10.90;99.90
62339;DHT22;48368;53.406;6.214;2023-03-23T07:39:43;10.90;99.90
62339;DHT22;48368;53.406;6.214;2023-03-23T07:42:09;10.90;99.90
62339;DHT22;48368;53.406;6.214;2023-03-23T07:44:35;11.00;99.90
62339;DHT22;48368;53.406;6.214;2023-03-23T07:47:01;11.00;99.90
62339;DHT22;48368;53.406;6.214;2023-03-23T07:49:27;11.00;99.90
62339;DHT22;48368;53.406;6.214;2023-03-23T07:51:53;11.00;99.90
62339;DHT22;48368;53.406;6.214;2023-03-23T07:54:19;11.10;99.90
62339;DHT22;48368;53.406;6.214;2023-03-23T07:56:45;11.10;99.90
62339;DHT22;48368;53.406;6.214;2023-03-23T07:59:11;11.20;99.90
62339;DHT22;48368;53.406;6.214;2023-03-23T08:01:38;11.30;99.90
62339;DHT22;48368;53.406;6.214;2023-03-23T08:04:05;11.40;99.90
62339;DHT22;48368;53.406;6.214;2023-03-23T08:06:33;11.50;99.90
62339;DHT22;48368;53.406;6.214;2023-03-23T08:08:59;11.50;99.90
62339;DHT22;48368;53.406;6.214;2023-03-23T08:11:26;11.60;99.90
62339;DHT22;48368;53.406;6.214;2023-03-23T08:13:52;11.70;99.90
62339;DHT22;48368;53.406;6.214;2023-03-23T08:16:18;11.70;99.90
62339;DHT22;48368;53.406;6.214;2023-03-23T08:18:48;11.70;99.90
62339;DHT22;48368;53.406;6.214;2023-03-23T08:21:14;11.70;99.90
62339;DHT22;48368;53.406;6.214;2023-03-23T08:23:39;11.70;99.90
62339;DHT22;48368;53.406;6.214;2023-03-23T08:26:06;11.70;99.90
62339;DHT22;48368;53.406;6.214;2023-03-23T08:28:34;11.70;99.90
62339;DHT22;48368;53.406;6.214;2023-03-23T08:31:00;11.70;99.90
62339;DHT22;48368;53.406;6.214;2023-03-23T08:33:26;11.70;99.90
62339;DHT22;48368;53.406;6.214;2023-03-23T08:35:56;11.70;99.90
62339;DHT22;48368;53.406;6.214;2023-03-23T08:38:23;11.70;99.90
62339;DHT22;48368;53.406;6.214;2023-03-23T08:40:49;11.70;99.90
62339;DHT22;48368;53.406;6.214;2023-03-23T08:43:16;11.80;99.90
62339;DHT22;48368;53.406;6.214;2023-03-23T08:45:42;11.80;99.90
62339;DHT22;48368;53.406;6.214;2023-03-23T08:48:08;11.80;99.90
62339;DHT22;48368;53.406;6.214;2023-03-23T08:50:35;11.90;99.90
62339;DHT22;48368;53.406;6.214;2023-03-23T08:53:01;12.00;99.90
62339;DHT22;48368;53.406;6.214;2023-03-23T08:55:28;12.20;99.90
62339;DHT22;48368;53.406;6.214;2023-03-23T08:57:54;12.30;99.90
62339;DHT22;48368;53.406;6.214;2023-03-23T09:00:21;12.30;99.90
62339;DHT22;48368;53.406;6.214;2023-03-23T09:02:51;12.40;99.90
62339;DHT22;48368;53.406;6.214;2023-03-23T09:05:20;12.50;99.90
62339;DHT22;48368;53.406;6.214;2023-03-23T09:07:49;12.50;99.90
62339;DHT22;48368;53.406;6.214;2023-03-23T09:10:16;12.70;99.90
62339;DHT22;48368;53.406;6.214;2023-03-23T09:12:43;12.80;99.90
62339;DHT22;48368;53.406;6.214;2023-03-23T09:15:11;12.80;99.90
62339;DHT22;48368;53.406;6.214;2023-03-23T09:17:46;12.80;99.90
62339;DHT22;48368;53.406;6.214;2023-03-23T09:20:15;12.90;99.90
62339;DHT22;48368;53.406;6.214;2023-03-23T09:22:43;12.90;99.90
62339;DHT22;48368;53.406;6.214;2023-03-23T09:25:11;12.80;99.90
62339;DHT22;48368;53.406;6.214;2023-03-23T09:27:38;12.70;99.90
62339;DHT22;48368;53.406;6.214;2023-03-23T09:30:06;12.60;99.90
62339;DHT22;48368;53.406;6.214;2023-03-23T09:32:33;12.60;99.90
62339;DHT22;48368;53.406;6.214;2023-03-23T09:35:01;12.70;99.90
62339;DHT22;48368;53.406;6.214;2023-03-23T09:37:29;12.80;99.90
62339;DHT22;48368;53.406;6.214;2023-03-23T09:39:55;13.00;99.90
62339;DHT22;48368;53.406;6.214;2023-03-23T09:45:12;13.40;99.90
62339;DHT22;48368;53.406;6.214;2023-03-23T09:50:31;13.70;99.90
62339;DHT22;48368;53.406;6.214;2023-03-23T09:53:08;13.80;99.90
62339;DHT22;48368;53.406;6.214;2023-03-23T09:55:35;13.90;99.90
62339;DHT22;48368;53.406;6.214;2023-03-23T09:58:20;14.00;99.90
62339;DHT22;48368;53.406;6.214;2023-03-23T10:01:07;14.10;99.90
62339;DHT22;48368;53.406;6.214;2023-03-23T10:03:42;14.20;99.90
62339;DHT22;48368;53.406;6.214;2023-03-23T10:06:11;14.10;99.90
62339;DHT22;48368;53.406;6.214;2023-03-23T10:08:43;14.20;99.90
62339;DHT22;48368;53.406;6.214;2023-03-23T10:14:15;14.10;99.90
62339;DHT22;48368;53.406;6.214;2023-03-23T10:17:09;13.90;99.90
62339;DHT22;48368;53.406;6.214;2023-03-23T10:22:32;13.70;99.90
62339;DHT22;48368;53.406;6.214;2023-03-23T10:30:30;13.80;99.90
62339;DHT22;48368;53.406;6.214;2023-03-23T10:33:15;13.80;99.90
62339;DHT22;48368;53.406;6.214;2023-03-23T10:35:59;13.90;99.90
62339;DHT22;48368;53.406;6.214;2023-03-23T10:38:34;13.80;99.90
62339;DHT22;48368;53.406;6.214;2023-03-23T10:41:13;13.90;99.90
62339;DHT22;48368;53.406;6.214;2023-03-23T10:43:40;13.90;99.90
62339;DHT22;48368;53.406;6.214;2023-03-23T10:46:28;14.00;99.90
62339;DHT22;48368;53.406;6.214;2023-03-23T10:48:57;14.20;99.90
62339;DHT22;48368;53.406;6.214;2023-03-23T10:51:33;14.30;99.90
62339;DHT22;48368;53.406;6.214;2023-03-23T10:54:02;14.40;99.90
62339;DHT22;48368;53.406;6.214;2023-03-23T10:56:42;14.40;99.90
62339;DHT22;48368;53.406;6.214;2023-03-23T10:59:26;14.70;99.90
62339;DHT22;48368;53.406;6.214;2023-03-23T11:01:55;14.90;99.90
62339;DHT22;48368;53.406;6.214;2023-03-23T11:04:22;15.00;99.90
62339;DHT22;48368;53.406;6.214;2023-03-23T11:06:51;15.20;99.90
62339;DHT22;48368;53.406;6.214;2023-03-23T11:09:20;15.20;99.90
62339;DHT22;48368;53.406;6.214;2023-03-23T11:11:53;15.40;99.90
62339;DHT22;48368;53.406;6.214;2023-03-23T11:14:31;15.30;99.90
62339;DHT22;48368;53.406;6.214;2023-03-23T11:17:03;15.40;99.90
62339;DHT22;48368;53.406;6.214;2023-03-23T11:19:31;15.40;99.90
62339;DHT22;48368;53.406;6.214;2023-03-23T11:22:25;15.30;99.90
62339;DHT22;48368;53.406;6.214;2023-03-23T11:24:58;15.10;99.90
62339;DHT22;48368;53.406;6.214;2023-03-23T11:27:25;15.10;99.90
62339;DHT22;48368;53.406;6.214;2023-03-23T11:30:09;14.90;99.90
62339;DHT22;48368;53.406;6.214;2023-03-23T11:32:36;14.70;99.90
62339;DHT22;48368;53.406;6.214;2023-03-23T11:35:16;14.60;99.90
62339;DHT22;48368;53.406;6.214;2023-03-23T11:37:53;14.30;99.90
62339;DHT22;48368;53.406;6.214;2023-03-23T11:40:22;14.30;99.90
62339;DHT22;48368;53.406;6.214;2023-03-23T11:43:06;14.30;99.90
62339;DHT22;48368;53.406;6.214;2023-03-23T11:48:12;14.20;99.90
62339;DHT22;48368;53.406;6.214;2023-03-23T11:51:00;14.50;99.90
62339;DHT22;48368;53.406;6.214;2023-03-23T11:56:24;14.80;99.90
62339;DHT22;48368;53.406;6.214;2023-03-23T11:58:55;15.10;99.90
62339;DHT22;48368;53.406;6.214;2023-03-23T12:06:57;15.10;99.90
62339;DHT22;48368;53.406;6.214;2023-03-23T12:12:29;15.20;99.90
62339;DHT22;48368;53.406;6.214;2023-03-23T12:15:34;15.30;99.90
62339;DHT22;48368;53.406;6.214;2023-03-23T12:23:55;15.50;99.90
62339;DHT22;48368;53.406;6.214;2023-03-23T12:26:28;15.50;99.90
62339;DHT22;48368;53.406;6.214;2023-03-23T12:29:20;15.60;99.90
62339;DHT22;48368;53.406;6.214;2023-03-23T12:31:51;15.60;99.90
62339;DHT22;48368;53.406;6.214;2023-03-23T12:34:49;15.60;99.90
62339;DHT22;48368;53.406;6.214;2023-03-23T12:39:58;15.50;99.90
62339;DHT22;48368;53.406;6.214;2023-03-23T12:45:37;15.50;99.90
62339;DHT22;48368;53.406;6.214;2023-03-23T12:48:26;15.50;99.90
62339;DHT22;48368;53.406;6.214;2023-03-23T12:51:20;15.50;99.90
62339;DHT22;48368;53.406;6.214;2023-03-23T12:56:35;15.60;99.90
62339;DHT22;48368;53.406;6.214;2023-03-23T12:59:12;15.60;99.90
62339;DHT22;48368;53.406;6.214;2023-03-23T13:01:43;15.50;99.90
62339;DHT22;48368;53.406;6.214;2023-03-23T13:04:15;15.50;99.90
62339;DHT22;48368;53.406;6.214;2023-03-23T13:06:47;15.50;99.90
62339;DHT22;48368;53.406;6.214;2023-03-23T13:09:25;15.40;99.90
62339;DHT22;48368;53.406;6.214;2023-03-23T13:11:54;15.30;99.90
62339;DHT22;48368;53.406;6.214;2023-03-23T13:20:21;15.50;99.90
62339;DHT22;48368;53.406;6.214;2023-03-23T13:22:55;15.30;99.90
62339;DHT22;48368;53.406;6.214;2023-03-23T13:25:47;15.40;99.90
62339;DHT22;48368;53.406;6.214;2023-03-23T13:28:19;15.30;99.90
62339;DHT22;48368;53.406;6.214;2023-03-23T13:30:59;15.50;99.90
62339;DHT22;48368;53.406;6.214;2023-03-23T13:33:28;15.40;99.90
62339;DHT22;48368;53.406;6.214;2023-03-23T13:36:04;15.30;99.90
62339;DHT22;48368;53.406;6.214;2023-03-23T13:38:33;15.20;99.90
62339;DHT22;48368;53.406;6.214;2023-03-23T13:41:11;14.90;99.90
62339;DHT22;48368;53.406;6.214;2023-03-23T13:43:38;14.90;99.90
62339;DHT22;48368;53.406;6.214;2023-03-23T13:46:26;14.80;99.90
62339;DHT22;48368;53.406;6.214;2023-03-23T13:49:19;14.70;99.90
62339;DHT22;48368;53.406;6.214;2023-03-23T13:51:56;14.80;99.90
62339;DHT22;48368;53.406;6.214;2023-03-23T13:56:57;14.70;99.90
62339;DHT22;48368;53.406;6.214;2023-03-23T13:59:31;14.50;99.90
62339;DHT22;48368;53.406;6.214;2023-03-23T14:02:33;14.50;99.90
62339;DHT22;48368;53.406;6.214;2023-03-23T14:10:17;14.50;99.90
62339;DHT22;48368;53.406;6.214;2023-03-23T14:12:45;14.50;99.90
62339;DHT22;48368;53.406;6.214;2023-03-23T14:15:13;14.40;99.90
62339;DHT22;48368;53.406;6.214;2023-03-23T14:17:44;14.40;99.90
62339;DHT22;48368;53.406;6.214;2023-03-23T14:20:25;14.40;99.90
62339;DHT22;48368;53.406;6.214;2023-03-23T14:22:55;14.40;99.90
62339;DHT22;48368;53.406;6.214;2023-03-23T14:25:22;14.50;99.90
62339;DHT22;48368;53.406;6.214;2023-03-23T14:27:51;14.50;99.90
62339;DHT22;48368;53.406;6.214;2023-03-23T14:30:24;14.60;99.90
62339;DHT22;48368;53.406;6.214;2023-03-23T14:32:51;14.60;99.90
62339;DHT22;48368;53.406;6.214;2023-03-23T14:37:50;14.80;99.90
62339;DHT22;48368;53.406;6.214;2023-03-23T14:40:17;14.80;99.90
62339;DHT22;48368;53.406;6.214;2023-03-23T14:42:44;14.70;99.90
62339;DHT22;48368;53.406;6.214;2023-03-23T14:45:16;14.70;99.90
62339;DHT22;48368;53.406;6.214;2023-03-23T14:47:48;14.60;99.90
62339;DHT22;48368;53.406;6.214;2023-03-23T14:50:30;14.60;99.90
62339;DHT22;48368;53.406;6.214;2023-03-23T14:53:21;14.70;99.90
62339;DHT22;48368;53.406;6.214;2023-03-23T14:55:48;14.60;99.90
62339;DHT22;48368;53.406;6.214;2023-03-23T14:58:16;14.70;99.90
62339;DHT22;48368;53.406;6.214;2023-03-23T15:03:34;14.70;99.90
62339;DHT22;48368;53.406;6.214;2023-03-23T15:06:09;14.60;99.90
62339;DHT22;48368;53.406;6.214;2023-03-23T15:08:36;14.60;99.90
62339;DHT22;48368;53.406;6.214;2023-03-23T15:13:45;14.50;99.90
62339;DHT22;48368;53.406;6.214;2023-03-23T15:16:24;14.50;99.90
62339;DHT22;48368;53.406;6.214;2023-03-23T15:21:34;14.20;99.90
62339;DHT22;48368;53.406;6.214;2023-03-23T15:24:02;14.10;99.90
62339;DHT22;48368;53.406;6.214;2023-03-23T15:26:34;14.10;99.90
62339;DHT22;48368;53.406;6.214;2023-03-23T15:29:18;14.20;99.90
62339;DHT22;48368;53.406;6.214;2023-03-23T15:31:48;14.20;99.90
62339;DHT22;48368;53.406;6.214;2023-03-23T15:34:27;14.10;99.90
62339;DHT22;48368;53.406;6.214;2023-03-23T15:37:05;14.00;99.90
62339;DHT22;48368;53.406;6.214;2023-03-23T15:39:32;14.00;99.90
62339;DHT22;48368;53.406;6.214;2023-03-23T15:42:00;13.90;99.90
62339;DHT22;48368;53.406;6.214;2023-03-23T15:44:30;13.90;99.90
62339;DHT22;48368;53.406;6.214;2023-03-23T15:47:13;13.80;99.90
62339;DHT22;48368;53.406;6.214;2023-03-23T15:49:39;13.80;99.90
62339;DHT22;48368;53.406;6.214;2023-03-23T15:52:11;13.80;99.90
62339;DHT22;48368;53.406;6.214;2023-03-23T15:54:38;13.80;99.90
62339;DHT22;48368;53.406;6.214;2023-03-23T15:57:04;13.80;99.90
62339;DHT22;48368;53.406;6.214;2023-03-23T15:59:29;13.70;99.90
62339;DHT22;48368;53.406;6.214;2023-03-23T16:01:55;13.60;99.90
62339;DHT22;48368;53.406;6.214;2023-03-23T16:04:21;13.60;99.90
62339;DHT22;48368;53.406;6.214;2023-03-23T16:06:54;13.50;99.90
62339;DHT22;48368;53.406;6.214;2023-03-23T16:09:20;13.50;99.90
62339;DHT22;48368;53.406;6.214;2023-03-23T16:11:46;13.40;99.90
62339;DHT22;48368;53.406;6.214;2023-03-23T16:14:12;13.30;99.90
62339;DHT22;48368;53.406;6.214;2023-03-23T16:16:46;13.30;99.90
62339;DHT22;48368;53.406;6.214;2023-03-23T16:19:14;13.20;99.90
62339;DHT22;48368;53.406;6.214;2023-03-23T16:21:41;13.20;99.90
62339;DHT22;48368;53.406;6.214;2023-03-23T16:24:07;13.20;99.90
62339;DHT22;48368;53.406;6.214;2023-03-23T16:26:34;13.20;99.90
62339;DHT22;48368;53.406;6.214;2023-03-23T16:29:00;13.10;99.90
62339;DHT22;48368;53.406;6.214;2023-03-23T16:31:27;13.10;99.90
62339;DHT22;48368;53.406;6.214;2023-03-23T16:33:53;13.10;99.90
62339;DHT22;48368;53.406;6.214;2023-03-23T16:36:19;13.10;99.90
62339;DHT22;48368;53.406;6.214;2023-03-23T16:38:45;13.00;99.90
62339;DHT22;48368;53.406;6.214;2023-03-23T16:41:10;13.00;99.90
62339;DHT22;48368;53.406;6.214;2023-03-23T16:43:36;12.90;99.90
62339;DHT22;48368;53.406;6.214;2023-03-23T16:46:02;12.80;99.90
62339;DHT22;48368;53.406;6.214;2023-03-23T16:48:28;12.90;99.90
62339;DHT22;48368;53.406;6.214;2023-03-23T16:50:53;12.80;99.90
62339;DHT22;48368;53.406;6.214;2023-03-23T16:53:20;12.80;99.90
62339;DHT22;48368;53.406;6.214;2023-03-23T16:55:46;12.60;99.90
62339;DHT22;48368;53.406;6.214;2023-03-23T16:58:14;12.50;99.90
62339;DHT22;48368;53.406;6.214;2023-03-23T17:00:40;12.50;99.90
62339;DHT22;48368;53.406;6.214;2023-03-23T17:03:07;12.50;99.90
62339;DHT22;48368;53.406;6.214;2023-03-23T17:05:34;12.40;99.90
62339;DHT22;48368;53.406;6.214;2023-03-23T17:08:00;12.40;99.90
62339;DHT22;48368;53.406;6.214;2023-03-23T17:10:27;12.40;99.90
62339;DHT22;48368;53.406;6.214;2023-03-23T17:12:56;12.40;99.90